Time;durP1;ratioP1;P1;durP2;ratioP2;P2;SDS_P1;SDS_P2;PMS_P1;PMS_P2;Temp;Humidity;BMP_temperature;BMP_pressure;BME280_temperature;BME280_humidity;BME280_pressure;Samples;Min_cycle;Max_cycle;Signal;HPM_P1;HPM_P2
2022/04/18 00:10:44;;;;;;;11.27;5.53;;;;;;;6.24;100.00;99934.53;31374102;28;20053;-73
2022/04/18 00:25:46;;;;;;;7.90;4.90;;;;;;;6.26;100.00;99899.84;31389237;28;20052;-72
2022/04/18 00:40:48;;;;;;;10.17;5.63;;;;;;;6.25;100.00;99879.44;31392902;28;20060;-72
2022/04/18 00:55:50;;;;;;;8.50;4.70;;;;;;;6.13;100.00;99858.34;31369778;28;20053;-71
2022/04/18 01:10:53;;;;;;;8.63;4.30;;;;;;;6.02;100.00;99838.75;31381505;28;20048;-73
2022/04/18 01:41:16;;;;;;;5.23;3.33;;;;;;;5.68;100.00;99800.78;31368407;28;20067;-72
2022/04/18 01:56:18;;;;;;;5.33;3.53;;;;;;;5.48;100.00;99784.34;31379285;28;20484;-72
2022/04/18 02:11:20;;;;;;;5.00;2.90;;;;;;;5.47;100.00;99774.72;31389268;28;20052;-72
2022/04/18 02:26:22;;;;;;;7.57;3.00;;;;;;;5.39;100.00;99762.47;31367188;28;20056;-72
2022/04/18 02:41:24;;;;;;;5.57;3.40;;;;;;;5.24;100.00;99755.59;31374850;28;20045;-73
2022/04/18 02:56:26;;;;;;;7.27;3.43;;;;;;;5.21;100.00;99756.38;31349862;28;20439;-72
2022/04/18 03:11:28;;;;;;;6.33;3.67;;;;;;;5.26;100.00;99764.06;31376138;28;20158;-70
2022/04/18 03:26:35;;;;;;;6.80;3.70;;;;;;;5.18;100.00;99757.19;31383211;28;20049;-71
2022/04/18 03:41:39;;;;;;;4.83;3.37;;;;;;;5.18;100.00;99762.56;31381281;28;20064;-72
2022/04/18 03:56:41;;;;;;;7.53;2.57;;;;;;;5.22;100.00;99747.91;31386173;28;20045;-72
2022/04/18 04:11:43;;;;;;;7.83;3.20;;;;;;;5.24;100.00;99728.69;31380256;28;20071;-74
2022/04/18 04:26:45;;;;;;;4.93;2.80;;;;;;;5.25;100.00;99716.75;31392344;28;20052;-74
2022/04/18 04:41:47;;;;;;;6.07;3.27;;;;;;;5.29;100.00;99693.31;31378260;28;20057;-71
2022/04/18 04:56:49;;;;;;;8.73;3.70;;;;;;;5.38;100.00;99680.19;31373486;28;20051;-72
2022/04/18 05:11:52;;;;;;;9.07;4.20;;;;;;;5.48;100.00;99668.59;31382331;28;20075;-74
2022/04/18 05:26:54;;;;;;;7.37;3.43;;;;;;;5.53;100.00;99662.78;31380636;28;20054;-72
2022/04/18 05:41:56;;;;;;;7.20;3.50;;;;;;;5.46;100.00;99655.50;31366921;28;20060;-73
2022/04/18 05:57:01;;;;;;;4.93;3.10;;;;;;;5.46;100.00;99623.22;31369802;28;20057;-72
2022/04/18 06:12:04;;;;;;;6.47;4.10;;;;;;;5.66;100.00;99610.00;31369746;28;20053;-73
2022/04/18 06:27:06;;;;;;;7.57;3.63;;;;;;;5.89;100.00;99595.22;31352937;28;20057;-73
2022/04/18 06:42:07;;;;;;;6.10;3.97;;;;;;;5.99;100.00;99595.13;31384122;28;20051;-73
2022/04/18 06:57:11;;;;;;;5.83;3.47;;;;;;;6.21;100.00;99584.13;31415329;28;20055;-74
2022/04/18 07:12:13;;;;;;;5.70;3.40;;;;;;;6.19;100.00;99565.66;31404640;28;20053;-72
2022/04/18 07:27:15;;;;;;;5.33;3.20;;;;;;;6.42;100.00;99560.41;31390399;28;20148;-74
2022/04/18 07:42:19;;;;;;;5.90;3.40;;;;;;;6.83;100.00;99537.97;31344907;28;20063;-73
2022/04/18 07:57:28;;;;;;;6.03;3.47;;;;;;;6.82;100.00;99547.97;31389010;28;20052;-76
2022/04/18 08:12:31;;;;;;;6.27;3.70;;;;;;;6.93;100.00;99537.03;31363442;28;20140;-74
2022/04/18 08:27:33;;;;;;;9.43;5.03;;;;;;;6.88;100.00;99536.72;31369290;28;20048;-74
2022/04/18 08:42:37;;;;;;;8.33;5.23;;;;;;;6.95;100.00;99523.13;31373179;28;20057;-72
2022/04/18 08:57:40;;;;;;;8.93;5.50;;;;;;;7.14;100.00;99504.34;31379694;28;20045;-71
2022/04/18 09:12:43;;;;;;;7.40;4.37;;;;;;;7.21;100.00;99508.09;31390545;28;20542;-71
2022/04/18 09:27:56;;;;;;;7.93;5.40;;;;;;;7.19;100.00;99493.06;31402748;28;20057;-70
2022/04/18 09:43:02;;;;;;;8.07;5.27;;;;;;;7.08;100.00;99491.72;31372111;28;20051;-71
2022/04/18 09:58:06;;;;;;;7.30;4.30;;;;;;;7.06;100.00;99473.25;31413789;28;20049;-69
2022/04/18 10:13:30;;;;;;;9.10;5.10;;;;;;;7.15;100.00;99476.16;31376125;28;20528;-70
2022/04/18 10:28:39;;;;;;;10.80;5.67;;;;;;;7.16;100.00;99448.00;31411289;28;20192;-70
2022/04/18 10:43:53;;;;;;;10.20;5.07;;;;;;;7.39;100.00;99449.94;31403479;28;20140;-69
2022/04/18 10:58:55;;;;;;;6.87;4.57;;;;;;;7.51;100.00;99418.88;31415381;28;20080;-71
2022/04/18 11:13:59;;;;;;;9.43;5.20;;;;;;;7.55;100.00;99416.88;31414493;28;20053;-71
2022/04/18 11:29:01;;;;;;;8.47;4.80;;;;;;;7.78;100.00;99422.22;31374080;28;20049;-71
2022/04/18 11:44:03;;;;;;;13.60;5.93;;;;;;;8.13;100.00;99418.03;31373313;28;20420;-70
2022/04/18 11:59:05;;;;;;;15.93;7.70;;;;;;;8.28;100.00;99415.78;31399302;28;20056;-70
2022/04/18 12:14:08;;;;;;;15.17;7.43;;;;;;;8.12;100.00;99423.88;31413670;28;20057;-69
2022/04/18 12:29:11;;;;;;;16.70;9.00;;;;;;;8.32;100.00;99416.50;31399683;28;20047;-70
2022/04/18 12:44:14;;;;;;;17.43;8.73;;;;;;;8.45;100.00;99382.25;31409587;28;20052;-69
2022/04/18 12:59:30;;;;;;;16.50;8.47;;;;;;;8.35;100.00;99369.72;31377553;28;20053;-71
2022/04/18 13:14:34;;;;;;;28.40;13.83;;;;;;;8.49;100.00;99363.22;31380349;28;20045;-70
2022/04/18 13:29:36;;;;;;;14.53;8.57;;;;;;;8.48;100.00;99384.09;31347874;28;20055;-70
2022/04/18 13:44:38;;;;;;;16.23;9.23;;;;;;;8.46;100.00;99383.75;31358145;28;20061;-70
2022/04/18 13:59:40;;;;;;;13.40;7.33;;;;;;;8.31;100.00;99404.16;31334772;28;20407;-70
2022/04/18 14:30:06;;;;;;;12.30;7.50;;;;;;;8.17;100.00;99388.25;31352494;28;20412;-75
2022/04/18 14:45:08;;;;;;;16.07;8.47;;;;;;;7.95;100.00;99360.13;31353231;28;20055;-76
2022/04/18 15:00:14;;;;;;;12.33;6.50;;;;;;;7.93;100.00;99365.19;31349161;28;20519;-78
2022/04/18 15:15:16;;;;;;;;;;;;;;;7.84;100.00;99373.84;31337287;28;20043;-77
2022/04/18 15:45:39;;;;;;;7.63;5.33;;;;;;;7.64;100.00;99390.06;31354690;28;20061;-77
2022/04/18 16:00:41;;;;;;;10.47;5.50;;;;;;;7.56;100.00;99390.63;31359420;28;20051;-70
2022/04/18 16:15:44;;;;;;;7.23;4.10;;;;;;;7.44;100.00;99408.97;31352886;28;20049;-74
2022/04/18 16:46:07;;;;;;;11.77;4.73;;;;;;;7.17;100.00;99409.03;31347578;28;20063;-75
2022/04/18 17:01:09;;;;;;;13.07;5.47;;;;;;;7.02;100.00;99410.47;31360321;28;20049;-73
2022/04/18 17:16:11;;;;;;;9.07;4.80;;;;;;;6.81;100.00;99421.59;31347516;28;20044;-73
2022/04/18 17:31:15;;;;;;;9.00;4.50;;;;;;;6.83;100.00;99417.31;31350605;28;20095;-73
2022/04/18 17:46:17;;;;;;;12.20;6.37;;;;;;;6.66;100.00;99421.03;31348369;28;20057;-75
2022/04/18 18:01:19;;;;;;;11.40;5.23;;;;;;;6.55;100.00;99390.00;31337013;28;20087;-73
2022/04/18 18:16:21;;;;;;;27.13;12.17;;;;;;;6.42;100.00;99368.22;31318707;28;20842;-73
2022/04/18 18:31:23;;;;;;;13.83;6.90;;;;;;;6.41;100.00;99372.09;31336623;28;20049;-73
2022/04/18 18:46:25;;;;;;;15.37;7.87;;;;;;;6.39;100.00;99380.56;31337712;28;20060;-75
2022/04/18 19:01:28;;;;;;;14.20;6.47;;;;;;;6.30;100.00;99371.50;31337648;28;20487;-74
2022/04/18 19:16:30;;;;;;;14.50;7.07;;;;;;;6.32;100.00;99374.53;31351636;28;20065;-74
2022/04/18 19:31:33;;;;;;;21.57;7.17;;;;;;;6.33;100.00;99365.28;31342257;28;20571;-73
2022/04/18 19:46:36;;;;;;;16.57;6.43;;;;;;;6.31;100.00;99352.22;31358673;28;20068;-74
2022/04/18 20:01:37;;;;;;;18.93;6.87;;;;;;;6.28;100.00;99369.19;31323701;28;20540;-74
2022/04/18 20:16:39;;;;;;;15.00;6.37;;;;;;;6.23;100.00;99356.16;31337230;28;20056;-74
2022/04/18 20:31:41;;;;;;;19.27;8.10;;;;;;;6.21;100.00;99336.94;31378794;28;20041;-74
2022/04/18 20:46:43;;;;;;;16.90;7.50;;;;;;;6.21;100.00;99331.56;31335744;28;20057;-73
2022/04/18 21:01:45;;;;;;;21.03;8.23;;;;;;;6.17;100.00;99365.88;31326193;28;20053;-72
2022/04/18 21:16:47;;;;;;;31.47;10.83;;;;;;;6.26;100.00;99376.16;31350753;28;20610;-73
2022/04/18 21:31:49;;;;;;;29.13;10.80;;;;;;;6.22;100.00;99354.66;31371252;28;20131;-73
2022/04/18 21:46:51;;;;;;;24.63;8.83;;;;;;;6.08;100.00;99412.19;31369584;28;20053;-73
2022/04/18 22:01:53;;;;;;;32.37;11.10;;;;;;;5.99;100.00;99394.97;31346412;28;20078;-73
2022/04/18 22:16:55;;;;;;;81.13;21.63;;;;;;;5.89;100.00;99363.56;31353787;28;20135;-73
2022/04/18 22:31:57;;;;;;;68.67;18.00;;;;;;;5.85;100.00;99379.75;31381382;28;20393;-73
2022/04/18 22:47:05;;;;;;;37.33;11.37;;;;;;;5.81;100.00;99365.53;31392591;28;20100;-74
2022/04/18 23:02:08;;;;;;;28.93;8.67;;;;;;;5.87;100.00;99382.03;31398929;28;20044;-74
2022/04/18 23:17:10;;;;;;;21.60;8.77;;;;;;;5.96;100.00;99366.16;31406862;28;20202;-73
2022/04/18 23:32:12;;;;;;;22.00;7.90;;;;;;;5.91;100.00;99347.75;31413044;28;20037;-72
2022/04/18 23:47:14;;;;;;;16.73;6.67;;;;;;;5.87;100.00;99323.53;31386180;28;20071;-73
